Terminal Aerodrome Forecast
Issued by NWS Topeka, KS

Home | Current Version | Previous Version | Graphics & Text | Print | Product List | Glossary On
Versions: 1 2 3 4 5 6 7 8 9 10 11 12 13 14 15 16 17 18
000
FTUS43 KTOP 180522
TAFTOP
TAF
KTOP 180522Z 1806/1906 09005KT P6SM SKC
     FM180900 16008KT P6SM FEW250 WS015/19045KT
     FM181500 18022G34KT P6SM FEW250
     FM190000 18014KT P6SM BKN025=

USA.gov is the U.S. government's official web portal to all federal, state and local government web resources and services.